Time;durP1;ratioP1;P1;durP2;ratioP2;P2;SDS_P1;SDS_P2;PMS_P1;PMS_P2;Temp;Humidity;BMP_temperature;BMP_pressure;BME280_temperature;BME280_humidity;BME280_pressure;Samples;Min_cycle;Max_cycle;Signal;HPM_P1;HPM_P2
2022/08/20 00:00:28;;;;;;;4.50;1.20;;;19.30;99.90;;;19.10;96.79;97168.34;5012811;28;20163;-46
2022/08/20 00:02:58;;;;;;;1.27;1.10;;;19.20;99.90;;;19.05;97.04;97171.34;5033040;28;20410;-47
2022/08/20 00:05:37;;;;;;;1.50;1.23;;;19.20;99.90;;;19.01;97.11;97170.72;5032026;28;20017;-47
2022/08/20 00:08:03;;;;;;;2.53;1.15;;;19.20;99.90;;;18.98;98.18;97168.28;5033017;28;20052;-48
2022/08/20 00:10:32;;;;;;;2.45;1.20;;;19.10;99.90;;;18.96;98.19;97174.72;5033478;28;20056;-48
2022/08/20 00:12:57;;;;;;;1.52;1.13;;;19.10;99.90;;;18.88;98.96;97169.94;5033604;28;20021;-47
2022/08/20 00:15:28;;;;;;;1.35;1.25;;;19.10;99.90;;;18.83;98.53;97164.94;5013381;28;20036;-46
2022/08/20 00:17:55;;;;;;;1.13;1.02;;;19.00;99.90;;;18.80;100.00;97169.63;5015702;28;20029;-47
2022/08/20 00:20:24;;;;;;;1.77;1.10;;;19.00;99.90;;;18.85;99.89;97167.50;5031489;28;20028;-48
2022/08/20 00:22:50;;;;;;;3.50;1.05;;;19.00;99.90;;;18.79;100.00;97171.44;5033012;28;20026;-48
2022/08/20 00:25:18;;;;;;;1.48;1.20;;;19.00;99.90;;;18.83;100.00;97169.44;5032188;28;20104;-46
2022/08/20 00:27:44;;;;;;;1.27;1.17;;;19.00;99.90;;;18.81;99.96;97166.00;5017034;28;20025;-51
2022/08/20 00:30:13;;;;;;;1.58;1.10;;;19.00;99.90;;;18.78;100.00;97163.53;5034508;28;20060;-47
2022/08/20 00:32:57;;;;;;;1.77;1.25;;;18.90;99.90;;;18.72;100.00;97175.53;5032316;28;20025;-49
2022/08/20 00:35:28;;;;;;;1.55;1.10;;;18.90;99.90;;;18.70;100.00;97162.28;5016128;28;20036;-46
2022/08/20 00:37:54;;;;;;;1.48;1.17;;;18.90;99.90;;;18.79;100.00;97174.13;5032128;28;20029;-48
2022/08/20 00:40:26;;;;;;;1.75;1.20;;;18.90;99.90;;;18.77;100.00;97173.38;5017180;28;20310;-47
2022/08/20 00:42:57;;;;;;;1.60;1.20;;;18.90;99.90;;;18.76;100.00;97166.31;5029823;28;20029;-46
2022/08/20 00:45:26;;;;;;;1.20;1.10;;;18.90;99.90;;;18.79;99.95;97170.56;5030816;28;20146;-46
2022/08/20 00:47:55;;;;;;;1.83;1.10;;;18.90;99.90;;;18.79;100.00;97171.44;5031634;28;20026;-46
2022/08/20 00:50:34;;;;;;;2.35;1.42;;;18.90;99.90;;;18.85;100.00;97178.19;5030089;28;20124;-49
2022/08/20 00:53:04;;;;;;;1.10;1.00;;;19.00;99.90;;;18.86;99.36;97174.53;5013100;28;20025;-47
2022/08/20 00:55:32;;;;;;;1.80;1.00;;;19.00;99.90;;;18.91;99.76;97167.03;5017006;28;20368;-48
2022/08/20 00:58:04;;;;;;;1.58;1.17;;;19.00;99.90;;;18.96;99.01;97175.56;5016065;28;20032;-45
2022/08/20 01:00:39;;;;;;;3.42;1.10;;;19.10;99.90;;;18.99;99.36;97174.50;5029942;28;20033;-46
2022/08/20 01:03:08;;;;;;;1.13;1.02;;;19.10;99.90;;;19.02;98.58;97172.44;5031455;28;20022;-47
2022/08/20 01:05:39;;;;;;;1.55;1.10;;;19.20;99.90;;;19.04;98.87;97174.97;5032757;28;20511;-47
2022/08/20 01:08:05;;;;;;;1.75;1.30;;;19.20;99.90;;;19.07;97.99;97169.41;5031590;28;20036;-48
2022/08/20 01:10:36;;;;;;;1.67;1.15;;;19.20;99.90;;;19.14;97.53;97181.34;5017978;28;20279;-46
2022/08/20 01:13:10;;;;;;;1.15;1.05;;;19.30;99.90;;;19.20;97.19;97188.03;5033164;28;20120;-45
2022/08/20 01:15:41;;;;;;;2.72;1.27;;;19.30;99.90;;;19.16;97.40;97187.44;5031913;28;20343;-47
2022/08/20 01:18:13;;;;;;;2.05;0.98;;;19.30;99.90;;;19.18;97.58;97193.50;5016171;28;20033;-46
2022/08/20 01:20:47;;;;;;;1.70;1.27;;;19.30;99.90;;;19.12;97.86;97187.78;5014481;28;20040;-48
2022/08/20 01:23:56;;;;;;;1.58;1.20;;;19.20;99.90;;;19.05;98.76;97193.56;5015892;28;20108;-46
2022/08/20 01:26:39;;;;;;;3.70;0.90;;;19.20;99.90;;;19.04;98.56;97193.69;5016738;28;20087;-46
2022/08/20 01:29:23;;;;;;;1.85;1.10;;;19.20;99.90;;;18.97;99.11;97187.97;5018724;28;20068;-45
2022/08/20 01:31:49;;;;;;;4.45;1.10;;;19.20;99.90;;;18.96;99.16;97182.72;5019981;28;20041;-49
2022/08/20 01:34:18;;;;;;;1.13;0.93;;;19.20;99.90;;;19.00;99.43;97197.56;5035231;28;20053;-46
2022/08/20 01:36:50;;;;;;;1.17;1.00;;;19.10;99.90;;;19.01;99.68;97196.59;5036591;28;20067;-49
2022/08/20 01:39:28;;;;;;;1.70;1.13;;;19.20;99.90;;;19.02;99.28;97198.28;5033086;28;20109;-49
2022/08/20 01:42:32;;;;;;;1.88;1.10;;;19.20;99.90;;;19.14;98.16;97201.88;5035152;28;20029;-45
2022/08/20 01:48:41;;;;;;;1.52;0.93;;;19.30;99.90;;;19.24;97.15;97206.44;5025384;28;20114;-48
2022/08/20 01:53:49;;;;;;;2.05;1.15;;;19.40;99.90;;;19.32;97.10;97205.00;4980417;28;20058;-58
2022/08/20 01:56:19;;;;;;;1.00;0.90;;;19.40;99.90;;;19.31;96.96;97211.28;4983990;28;20041;-58
2022/08/20 01:58:52;;;;;;;1.75;1.02;;;19.50;99.90;;;19.34;96.71;97213.75;4983525;28;20441;-58
2022/08/20 02:01:37;;;;;;;3.03;1.15;;;19.50;99.90;;;19.34;96.82;97214.59;4983738;28;20023;-57
2022/08/20 02:04:06;;;;;;;1.20;1.00;;;19.50;99.90;;;19.30;97.22;97215.81;4985870;28;20157;-58
2022/08/20 02:06:39;;;;;;;1.30;1.10;;;19.40;99.90;;;19.31;97.31;97225.53;4984059;28;20125;-58
2022/08/20 02:09:08;;;;;;;2.05;1.33;;;19.40;99.90;;;19.31;97.09;97216.66;4984072;28;20053;-58
2022/08/20 02:11:35;;;;;;;1.75;1.10;;;19.40;99.90;;;19.30;97.27;97220.31;4982460;28;20473;-58
2022/08/20 02:14:06;;;;;;;1.10;1.00;;;19.50;99.90;;;19.27;98.37;97216.91;4984438;28;20030;-58
2022/08/20 02:16:35;;;;;;;1.38;1.00;;;19.40;99.90;;;19.25;97.78;97216.13;4983428;28;20170;-58
2022/08/20 02:19:08;;;;;;;1.70;0.90;;;19.40;99.90;;;19.27;97.51;97219.56;4968389;28;20049;-57
2022/08/20 02:21:40;;;;;;;0.77;0.77;;;19.40;99.90;;;19.23;98.47;97217.22;4965074;28;20034;-58
2022/08/20 02:24:08;;;;;;;1.20;1.10;;;19.40;99.90;;;19.19;98.36;97221.09;4968168;28;20026;-58
2022/08/20 02:26:36;;;;;;;0.80;0.80;;;19.30;99.90;;;19.14;99.20;97215.25;4983198;28;20034;-58
2022/08/20 02:29:08;;;;;;;0.95;0.90;;;19.30;99.90;;;19.06;99.86;97222.03;4984216;28;20034;-58
2022/08/20 02:31:35;;;;;;;1.67;1.00;;;19.20;99.90;;;19.01;100.00;97224.19;4962210;28;20088;-58
2022/08/20 02:34:04;;;;;;;1.20;1.05;;;19.20;99.90;;;19.00;100.00;97226.97;4984220;28;20452;-58
2022/08/20 02:36:31;;;;;;;1.40;0.90;;;19.20;99.90;;;19.01;100.00;97224.19;4980259;28;20502;-58
2022/08/20 02:38:57;;;;;;;2.30;1.60;;;19.20;99.90;;;19.05;100.00;97227.47;4967662;28;20039;-57
2022/08/20 02:41:23;;;;;;;0.93;0.82;;;19.20;99.90;;;19.08;99.67;97227.25;4982349;28;20034;-58
2022/08/20 02:43:50;;;;;;;3.67;1.05;;;19.20;99.90;;;19.12;99.83;97226.06;4984076;28;20044;-58
2022/08/20 02:46:18;;;;;;;1.02;0.90;;;19.30;99.90;;;19.08;99.94;97220.09;4979940;28;20142;-58
2022/08/20 02:48:44;;;;;;;1.10;1.00;;;19.30;99.90;;;19.12;100.00;97228.72;4983098;28;20072;-58
2022/08/20 02:51:10;;;;;;;0.98;0.75;;;19.30;99.90;;;19.13;100.00;97225.09;4983754;28;20324;-58
2022/08/20 02:53:40;;;;;;;2.55;1.13;;;19.30;99.90;;;19.12;99.97;97231.41;4978958;28;20505;-58
2022/08/20 02:56:07;;;;;;;1.95;1.10;;;19.30;99.90;;;19.16;99.49;97232.03;4981334;28;20084;-58
2022/08/20 02:58:34;;;;;;;1.13;1.05;;;19.30;99.90;;;19.15;99.77;97231.19;4982122;28;20038;-58
2022/08/20 03:01:01;;;;;;;0.70;0.70;;;19.30;99.90;;;19.08;99.89;97209.38;4984148;28;20026;-58
2022/08/20 03:03:27;;;;;;;2.38;1.15;;;19.30;99.90;;;19.00;100.00;97200.22;4980544;28;20031;-58
2022/08/20 03:05:56;;;;;;;1.45;1.25;;;19.30;99.90;;;19.09;100.00;97215.56;4983183;28;20603;-58
2022/08/20 03:08:22;;;;;;;1.25;1.02;;;19.30;99.90;;;19.03;100.00;97211.53;4981001;28;20126;-57
2022/08/20 03:10:50;;;;;;;1.55;1.20;;;19.20;99.90;;;19.01;100.00;97208.13;4982987;28;20039;-58
2022/08/20 03:13:16;;;;;;;3.08;1.27;;;19.20;99.90;;;18.98;100.00;97207.50;4980471;28;20520;-58
2022/08/20 03:15:55;;;;;;;0.90;0.80;;;19.20;99.90;;;18.97;100.00;97203.13;4986035;28;20035;-57
2022/08/20 03:18:25;;;;;;;2.05;1.30;;;19.10;99.90;;;18.95;100.00;97208.59;4984326;28;20100;-58
2022/08/20 03:20:51;;;;;;;1.05;0.93;;;19.10;99.90;;;18.90;100.00;97194.72;4968254;28;20033;-58
2022/08/20 03:23:18;;;;;;;1.55;1.13;;;19.10;99.90;;;18.92;100.00;97208.81;4981513;28;20078;-57
2022/08/20 03:25:45;;;;;;;1.45;1.30;;;19.10;99.90;;;18.86;100.00;97191.44;4983919;28;20041;-58
2022/08/20 03:28:12;;;;;;;1.45;1.35;;;19.10;99.90;;;18.87;100.00;97209.16;4982231;28;20065;-57
2022/08/20 03:30:39;;;;;;;2.08;1.42;;;19.00;99.90;;;18.85;100.00;97207.56;4983794;28;20145;-58
2022/08/20 03:33:06;;;;;;;2.17;1.42;;;19.00;99.90;;;18.80;100.00;97207.88;4983181;28;20030;-57
2022/08/20 03:35:34;;;;;;;1.42;1.23;;;19.00;99.90;;;18.77;100.00;97213.47;4980273;28;20387;-57
2022/08/20 03:38:00;;;;;;;1.98;1.58;;;19.00;99.90;;;18.76;100.00;97209.06;4983261;28;20022;-58
2022/08/20 03:40:31;;;;;;;1.45;1.20;;;18.90;99.90;;;18.74;100.00;97207.47;4982082;28;20049;-58
2022/08/20 03:42:57;;;;;;;2.10;1.60;;;18.90;99.90;;;18.73;100.00;97201.25;4980149;28;20117;-58
2022/08/20 03:45:26;;;;;;;1.77;1.45;;;18.90;99.90;;;18.75;100.00;97210.00;4982544;28;20054;-58
2022/08/20 03:47:54;;;;;;;1.67;1.40;;;18.90;99.90;;;18.76;100.00;97211.75;4980823;28;20034;-58
2022/08/20 03:50:27;;;;;;;1.55;1.40;;;18.90;99.90;;;18.79;100.00;97218.66;4980158;28;20076;-57
2022/08/20 03:52:54;;;;;;;1.52;1.42;;;18.90;99.90;;;18.79;100.00;97219.53;4964298;28;20089;-59
2022/08/20 03:55:21;;;;;;;2.10;1.70;;;18.90;99.90;;;18.82;100.00;97219.31;4982291;28;20058;-58
2022/08/20 03:57:57;;;;;;;1.67;1.50;;;19.00;99.90;;;18.84;100.00;97222.75;4982218;28;20038;-57
2022/08/20 04:00:45;;;;;;;2.13;1.80;;;19.00;99.90;;;18.87;100.00;97222.50;4981067;28;20490;-58
2022/08/20 04:03:11;;;;;;;3.40;1.65;;;19.00;99.90;;;18.86;100.00;97228.84;4978915;28;20041;-58
2022/08/20 04:05:39;;;;;;;2.50;1.52;;;19.00;99.90;;;18.86;100.00;97223.50;4980670;28;20493;-58
2022/08/20 04:08:19;;;;;;;2.60;1.90;;;19.00;99.90;;;18.88;100.00;97224.22;4982272;28;20042;-58
2022/08/20 04:10:47;;;;;;;1.75;1.63;;;19.10;99.90;;;18.90;100.00;97224.13;4983470;28;20294;-58
2022/08/20 04:13:14;;;;;;;1.83;1.60;;;19.10;99.90;;;18.95;100.00;97229.13;4981969;28;20034;-57
2022/08/20 04:15:40;;;;;;;2.10;1.60;;;19.10;99.90;;;18.99;100.00;97227.94;4980604;28;20037;-58
2022/08/20 04:18:08;;;;;;;3.03;2.00;;;19.10;99.90;;;18.99;100.00;97226.13;4980887;28;20038;-58
2022/08/20 04:20:37;;;;;;;2.80;1.70;;;19.10;99.90;;;19.00;100.00;97221.63;4980495;28;20565;-58
2022/08/20 04:23:03;;;;;;;2.20;2.00;;;19.20;99.90;;;19.00;100.00;97221.63;4982227;28;20061;-58
2022/08/20 04:25:31;;;;;;;2.83;1.90;;;19.20;99.90;;;19.00;100.00;97218.94;4980354;28;20093;-58
2022/08/20 04:27:59;;;;;;;2.45;2.00;;;19.20;99.90;;;19.04;100.00;97229.31;4981767;28;20042;-58
2022/08/20 04:30:25;;;;;;;1.92;1.60;;;19.20;99.90;;;19.02;100.00;97231.25;4980784;28;20030;-57
2022/08/20 04:32:52;;;;;;;1.90;1.70;;;19.20;99.90;;;19.00;100.00;97238.50;4980346;28;20030;-58
2022/08/20 04:35:18;;;;;;;1.75;1.58;;;19.20;99.90;;;18.97;100.00;97238.75;4978960;28;20034;-58
2022/08/20 04:37:46;;;;;;;3.47;1.75;;;19.10;99.90;;;18.93;100.00;97247.09;4980890;28;20118;-58
2022/08/20 04:43:03;;;;;;;2.63;2.05;;;19.00;99.90;;;18.74;100.00;97232.38;4978303;28;20081;-57
2022/08/20 04:45:31;;;;;;;2.25;1.80;;;19.00;99.90;;;18.71;100.00;97245.94;4979942;28;20033;-58
2022/08/20 04:48:04;;;;;;;2.33;1.95;;;18.90;99.90;;;18.62;100.00;97246.59;4979055;28;20128;-58
2022/08/20 04:50:36;;;;;;;2.20;2.00;;;18.80;99.90;;;18.56;100.00;97247.06;4981117;28;20027;-57
2022/08/20 04:53:08;;;;;;;2.60;2.37;;;18.80;99.90;;;18.50;100.00;97256.34;4981726;28;20026;-57
2022/08/20 04:55:38;;;;;;;2.45;2.22;;;18.70;99.90;;;18.47;100.00;97254.75;4980603;28;20023;-58
2022/08/20 04:58:08;;;;;;;2.38;2.17;;;18.70;99.90;;;18.46;100.00;97260.19;4980455;28;20063;-58
2022/08/20 05:00:34;;;;;;;2.67;2.47;;;18.60;99.90;;;18.45;100.00;97258.50;4980597;28;20058;-57
2022/08/20 05:03:00;;;;;;;3.13;2.33;;;18.60;99.90;;;18.44;100.00;97254.13;4981228;28;20034;-57
2022/08/20 05:05:26;;;;;;;5.18;2.33;;;18.60;99.90;;;18.42;100.00;97250.72;4979887;28;20398;-58
2022/08/20 05:07:52;;;;;;;2.33;2.13;;;18.60;99.90;;;18.43;100.00;97261.28;4982689;28;20291;-58
2022/08/20 05:10:18;;;;;;;2.33;2.05;;;18.60;99.90;;;18.43;100.00;97265.75;4981384;28;20121;-57
2022/08/20 05:12:45;;;;;;;2.97;2.30;;;18.60;99.90;;;18.38;100.00;97260.75;4981159;28;20474;-57
2022/08/20 05:15:11;;;;;;;4.35;2.42;;;18.60;99.90;;;18.38;100.00;97265.25;4980235;28;20034;-58
2022/08/20 05:17:39;;;;;;;3.20;2.63;;;18.50;99.90;;;18.33;100.00;97265.56;4980814;28;20034;-58
2022/08/20 05:20:10;;;;;;;2.55;2.28;;;18.50;99.90;;;18.28;100.00;97259.69;4962336;28;20545;-58
2022/08/20 05:22:35;;;;;;;3.05;2.53;;;18.50;99.90;;;18.26;100.00;97259.78;4981663;28;20031;-57
2022/08/20 05:25:02;;;;;;;2.78;2.42;;;18.50;99.90;;;18.25;100.00;97267.91;4979562;28;20375;-58
2022/08/20 05:27:28;;;;;;;4.63;2.55;;;18.50;99.90;;;18.28;100.00;97276.53;4963056;28;20023;-58
2022/08/20 05:30:01;;;;;;;2.95;2.65;;;18.50;99.90;;;18.34;100.00;97277.97;4983221;28;20439;-57
2022/08/20 05:32:28;;;;;;;3.55;2.75;;;18.50;99.90;;;18.38;100.00;97281.28;4982130;28;20037;-57
2022/08/20 05:34:54;;;;;;;2.90;2.60;;;18.60;99.90;;;18.42;100.00;97280.94;4981711;28;20422;-58
2022/08/20 05:37:20;;;;;;;2.55;2.25;;;18.60;99.90;;;18.44;100.00;97280.81;4980124;28;20026;-58
2022/08/20 05:39:45;;;;;;;3.45;2.63;;;18.60;99.90;;;18.44;100.00;97281.66;4979791;28;20031;-58
2022/08/20 05:42:11;;;;;;;3.08;2.50;;;18.60;99.90;;;18.46;100.00;97289.56;4978750;28;20041;-58
2022/08/20 05:44:38;;;;;;;3.03;2.15;;;18.60;99.90;;;18.49;100.00;97286.69;4979757;28;20030;-58
2022/08/20 05:47:04;;;;;;;2.33;2.13;;;18.60;99.90;;;18.50;100.00;97288.38;4980118;28;20049;-58
2022/08/20 05:49:30;;;;;;;2.97;2.30;;;18.70;99.90;;;18.55;100.00;97288.06;4977368;28;20046;-58
2022/08/20 05:51:57;;;;;;;2.67;2.25;;;18.70;99.90;;;18.64;100.00;97295.44;4965163;28;20120;-57
2022/08/20 05:54:23;;;;;;;2.55;2.28;;;18.80;99.90;;;18.70;100.00;97295.00;4980193;28;20031;-57
2022/08/20 05:56:49;;;;;;;2.80;2.28;;;18.90;99.90;;;18.81;100.00;97297.78;4981909;28;20122;-58
2022/08/20 05:59:16;;;;;;;3.30;2.42;;;19.00;99.90;;;19.00;100.00;97299.13;4980568;28;20038;-57
2022/08/20 06:01:43;;;;;;;3.63;2.50;;;19.10;99.90;;;19.13;100.00;97286.56;4980180;28;20069;-57
2022/08/20 06:04:26;;;;;;;3.63;2.40;;;19.30;99.90;;;19.23;100.00;97268.88;4979410;28;20026;-57
2022/08/20 06:07:05;;;;;;;2.08;1.88;;;19.50;99.90;;;19.62;100.00;97288.25;4981556;28;20121;-57
2022/08/20 06:09:32;;;;;;;2.67;2.30;;;19.70;99.90;;;19.75;100.00;97288.22;4980526;28;20965;-58
2022/08/20 06:12:04;;;;;;;2.60;2.00;;;19.90;99.90;;;19.94;100.00;97302.88;4981562;28;20034;-58
2022/08/20 06:14:31;;;;;;;2.13;1.92;;;20.00;99.90;;;20.07;100.00;97300.09;4962366;28;20136;-57
2022/08/20 06:17:10;;;;;;;3.13;2.33;;;20.10;99.90;;;20.20;100.00;97298.16;4983628;28;20520;-58
2022/08/20 06:19:38;;;;;;;2.00;1.80;;;20.20;99.90;;;20.26;100.00;97289.69;4982957;28;20060;-58
2022/08/20 06:22:06;;;;;;;2.97;2.50;;;20.30;99.90;;;20.31;100.00;97302.69;4983876;28;20357;-58
2022/08/20 06:24:32;;;;;;;2.53;2.08;;;20.40;99.90;;;20.20;100.00;97282.09;4967519;28;20022;-58
2022/08/20 06:27:00;;;;;;;2.67;2.30;;;20.40;99.90;;;20.28;100.00;97298.44;4984414;28;20034;-58
2022/08/20 06:29:28;;;;;;;2.45;1.95;;;20.40;99.90;;;20.23;100.00;97303.31;4982827;28;20089;-57
2022/08/20 06:31:55;;;;;;;3.15;2.47;;;20.40;99.90;;;20.22;100.00;97304.25;4982896;28;20054;-58
2022/08/20 06:34:21;;;;;;;2.60;2.40;;;20.40;99.90;;;20.20;100.00;97306.22;4966732;28;20031;-58
2022/08/20 06:36:46;;;;;;;3.75;2.40;;;20.40;99.90;;;20.16;100.00;97304.75;4983759;28;20022;-58
2022/08/20 06:39:13;;;;;;;3.17;2.50;;;20.30;99.90;;;20.14;100.00;97312.06;4981673;28;20062;-58
2022/08/20 06:41:39;;;;;;;3.45;2.50;;;20.30;99.90;;;20.12;100.00;97304.13;4983860;28;20034;-58
2022/08/20 06:44:06;;;;;;;2.92;2.50;;;20.30;99.90;;;20.15;100.00;97306.59;4984497;28;20223;-58
2022/08/20 06:46:36;;;;;;;2.78;2.45;;;20.30;99.90;;;20.09;100.00;97309.72;4983326;28;20023;-58
2022/08/20 06:49:07;;;;;;;7.55;2.63;;;20.30;99.90;;;20.07;100.00;97314.34;4983363;28;20033;-58
2022/08/20 06:51:33;;;;;;;3.33;2.58;;;20.20;99.90;;;20.02;100.00;97311.16;4965154;28;20033;-58
2022/08/20 06:53:59;;;;;;;3.22;2.10;;;20.20;99.90;;;20.00;100.00;97305.91;4980816;28;20073;-58
2022/08/20 06:56:25;;;;;;;3.63;2.30;;;20.10;99.90;;;19.96;100.00;97315.16;4983165;28;20125;-58
2022/08/20 06:58:51;;;;;;;2.67;2.28;;;20.10;99.90;;;19.95;100.00;97313.44;4984386;28;20490;-58
2022/08/20 07:01:19;;;;;;;6.43;2.33;;;20.10;99.90;;;19.95;100.00;97310.75;4981448;28;20023;-58
2022/08/20 07:03:46;;;;;;;2.47;2.20;;;20.10;99.90;;;19.92;100.00;97308.34;4981420;28;20029;-57
2022/08/20 07:06:14;;;;;;;4.13;2.53;;;20.10;99.90;;;19.95;100.00;97310.75;4982050;28;20558;-57
2022/08/20 07:08:41;;;;;;;2.03;1.83;;;20.10;99.90;;;20.02;100.00;97313.84;4965179;28;20048;-58
2022/08/20 07:11:07;;;;;;;2.47;2.22;;;20.10;99.90;;;20.01;100.00;97310.31;4981919;28;20042;-57
2022/08/20 07:13:35;;;;;;;2.60;2.00;;;20.20;99.90;;;20.08;100.00;97309.81;4982409;28;20553;-58
2022/08/20 07:16:05;;;;;;;5.25;2.30;;;20.20;99.90;;;20.16;100.00;97315.47;4982642;28;20044;-58
2022/08/20 07:18:30;;;;;;;3.15;2.20;;;20.30;99.90;;;20.28;100.00;97313.63;4980813;28;20030;-58
2022/08/20 07:20:57;;;;;;;3.17;2.28;;;20.40;99.90;;;20.39;100.00;97309.16;4981039;28;20045;-58
2022/08/20 07:23:26;;;;;;;2.40;1.80;;;20.50;99.90;;;20.52;100.00;97318.91;4984541;28;20087;-58
2022/08/20 07:25:54;;;;;;;5.30;2.47;;;20.60;99.90;;;20.65;100.00;97316.16;4982067;28;20121;-58
2022/08/20 07:28:23;;;;;;;3.22;2.10;;;20.80;99.90;;;20.79;100.00;97324.78;4963577;28;20121;-58
2022/08/20 07:33:38;;;;;;;2.35;2.15;;;21.00;99.90;;;21.19;98.55;97325.25;4981284;28;20046;-59
2022/08/20 07:36:04;;;;;;;2.00;1.80;;;21.30;99.90;;;21.45;97.02;97323.13;4982007;28;20097;-58
2022/08/20 07:38:31;;;;;;;2.90;2.20;;;21.50;99.90;;;21.59;94.12;97311.25;4964896;28;20143;-60
2022/08/20 07:41:05;;;;;;;5.32;2.40;;;21.70;99.90;;;21.88;91.05;97335.69;4983961;28;20030;-60
2022/08/20 07:43:31;;;;;;;2.40;1.77;;;21.90;99.90;;;22.05;89.36;97328.88;4982753;28;20069;-58
2022/08/20 07:46:00;;;;;;;2.67;2.30;;;22.10;99.90;;;22.23;88.42;97334.50;4967901;28;20034;-58
2022/08/20 07:48:29;;;;;;;3.45;2.30;;;22.30;99.90;;;22.39;87.16;97339.44;4982571;28;20797;-58
2022/08/20 07:50:56;;;;;;;2.40;2.13;;;22.50;99.90;;;22.62;85.49;97341.00;4981049;28;20328;-58
2022/08/20 07:53:22;;;;;;;3.15;2.20;;;22.70;99.90;;;22.73;83.39;97341.91;5024012;22;20564;-46
2022/08/20 07:55:48;;;;;;;2.22;2.03;;;22.80;99.90;;;22.96;82.93;97342.56;5029886;28;20114;-46
2022/08/20 07:58:18;;;;;;;6.13;2.40;;;23.00;99.90;;;22.99;82.09;97334.25;5033331;28;20024;-49
2022/08/20 08:00:45;;;;;;;5.05;2.75;;;23.10;99.90;;;23.06;79.67;97343.50;5033327;28;20310;-46
2022/08/20 08:03:11;;;;;;;2.35;2.15;;;23.20;99.90;;;23.16;79.25;97351.59;5032332;28;20130;-46
2022/08/20 08:05:40;;;;;;;3.63;2.58;;;23.30;99.90;;;23.17;77.55;97342.53;5031570;28;20032;-45
2022/08/20 08:08:11;;;;;;;3.33;2.50;;;23.30;99.90;;;23.33;77.47;97342.88;5032010;28;20102;-46
2022/08/20 08:10:39;;;;;;;2.55;2.35;;;23.50;99.90;;;23.38;76.30;97343.31;5033278;28;20025;-46
2022/08/20 08:13:11;;;;;;;3.85;2.30;;;23.60;99.90;;;23.59;76.79;97343.16;5032553;28;20036;-45
2022/08/20 08:15:41;;;;;;;3.25;2.20;;;23.70;99.90;;;23.77;75.39;97346.03;5015742;28;20021;-48
2022/08/20 08:18:20;;;;;;;3.15;2.03;;;23.90;99.90;;;24.07;74.17;97346.91;5014295;28;20035;-47
2022/08/20 08:20:47;;;;;;;5.65;2.50;;;24.10;99.90;;;24.17;73.16;97334.31;5015075;28;20058;-47
2022/08/20 08:23:12;;;;;;;2.58;2.38;;;24.30;99.90;;;24.28;71.91;97335.13;5015013;28;20059;-47
2022/08/20 08:25:41;;;;;;;2.30;2.10;;;24.30;99.90;;;24.35;72.21;97341.63;5033331;28;20061;-46
2022/08/20 08:28:10;;;;;;;3.70;2.80;;;24.40;99.90;;;24.41;71.01;97335.69;5033290;28;20116;-47
2022/08/20 08:30:41;;;;;;;3.28;2.50;;;24.50;99.90;;;24.45;71.01;97336.22;5032088;28;20021;-45
2022/08/20 08:33:27;;;;;;;3.00;2.30;;;24.70;99.90;;;24.62;69.26;97326.56;5033893;28;20151;-48
2022/08/20 08:35:56;;;;;;;2.33;1.90;;;24.80;99.90;;;24.84;68.07;97323.50;5035388;28;20462;-48
2022/08/20 08:38:23;;;;;;;2.40;2.20;;;25.00;99.90;;;25.14;66.43;97319.69;5032691;28;20036;-47
2022/08/20 08:40:53;;;;;;;2.40;2.10;;;25.40;99.90;;;25.47;65.19;97327.34;5031689;28;20021;-46
2022/08/20 08:43:24;;;;;;;2.92;2.60;;;25.70;99.90;;;25.38;62.76;97321.00;5031272;28;20025;-46
2022/08/20 08:46:11;;;;;;;4.28;2.15;;;25.70;99.90;;;25.38;64.38;97328.25;5015567;28;20021;-48
2022/08/20 08:48:42;;;;;;;3.05;2.38;;;25.60;99.90;;;25.41;64.05;97328.81;4996829;28;20366;-47
2022/08/20 08:51:13;;;;;;;3.40;2.13;;;25.60;99.90;;;25.24;63.43;97322.34;5016473;28;20032;-47
2022/08/20 08:53:49;;;;;;;5.80;2.40;;;25.50;99.90;;;24.95;63.10;97330.56;5026760;28;20045;-46
2022/08/20 08:56:15;;;;;;;2.70;2.17;;;25.30;99.90;;;24.88;64.55;97335.69;5016563;28;20060;-47
2022/08/20 08:58:43;;;;;;;2.13;2.00;;;25.10;99.90;;;24.77;65.08;97336.72;5031511;28;20028;-46
2022/08/20 09:01:15;;;;;;;4.82;2.60;;;25.00;99.90;;;24.57;66.78;97330.56;5015974;28;20036;-46
2022/08/20 09:03:46;;;;;;;4.10;2.05;;;24.90;99.90;;;24.65;64.83;97339.75;5013994;28;20018;-48
2022/08/20 09:06:17;;;;;;;3.10;2.53;;;24.90;99.90;;;24.71;63.98;97331.94;5016462;28;20064;-45
2022/08/20 09:08:51;;;;;;;3.17;2.08;;;25.00;99.90;;;24.98;63.17;97326.72;5018824;28;20480;-47
2022/08/20 09:11:20;;;;;;;2.60;2.00;;;25.40;99.90;;;25.37;61.85;97329.25;5015870;28;20051;-47
2022/08/20 09:13:45;;;;;;;3.17;2.47;;;25.60;99.90;;;25.32;62.06;97310.78;5030009;28;20030;-49
2022/08/20 09:16:13;;;;;;;2.53;2.30;;;25.70;99.80;;;25.30;62.21;97320.88;5029818;28;20488;-46
2022/08/20 09:18:39;;;;;;;2.88;2.58;;;25.60;99.60;;;25.22;63.33;97327.03;5030109;28;20041;-49
2022/08/20 09:21:06;;;;;;;2.35;2.03;;;25.50;99.90;;;25.20;63.89;97326.31;5034498;28;20021;-46
2022/08/20 09:23:32;;;;;;;2.72;2.15;;;25.40;99.90;;;25.10;63.26;97328.22;5031911;28;20025;-46
2022/08/20 09:25:58;;;;;;;2.10;1.90;;;25.40;99.80;;;25.25;63.34;97324.06;5034155;28;20016;-48
2022/08/20 09:28:24;;;;;;;1.48;1.30;;;25.50;99.80;;;25.21;60.88;97321.78;5030926;28;20025;-47
2022/08/20 09:30:50;;;;;;;2.00;1.50;;;25.50;99.10;;;25.44;61.45;97331.19;5030524;28;20079;-47
2022/08/20 09:33:16;;;;;;;2.25;1.52;;;25.60;99.20;;;25.42;60.33;97329.63;5033219;28;20025;-47
2022/08/20 09:35:43;;;;;;;2.17;1.50;;;25.70;98.70;;;25.53;61.24;97329.41;5032688;28;20127;-47
2022/08/20 09:38:09;;;;;;;3.03;1.40;;;25.80;98.90;;;25.71;60.81;97332.97;5032306;28;20029;-47
2022/08/20 09:40:35;;;;;;;3.95;1.65;;;26.00;98.40;;;25.78;58.69;97327.81;5029263;28;20213;-46
2022/08/20 09:43:02;;;;;;;1.58;1.40;;;26.10;97.80;;;25.35;59.44;97337.47;5030948;28;20484;-47
2022/08/20 09:45:28;;;;;;;1.90;1.50;;;26.00;97.10;;;25.55;59.38;97332.81;5016914;28;20418;-48
2022/08/20 09:47:53;;;;;;;1.52;1.40;;;26.00;97.50;;;25.50;59.72;97316.22;5030190;28;20029;-46
2022/08/20 09:50:19;;;;;;;1.90;1.40;;;25.90;97.70;;;25.42;59.46;97326.94;5033520;28;20236;-45
2022/08/20 09:52:48;;;;;;;4.45;1.70;;;25.80;97.40;;;25.39;59.70;97322.69;5032281;28;20071;-46
2022/08/20 09:55:33;;;;;;;1.52;1.30;;;25.70;97.80;;;25.44;60.52;97314.97;5019962;28;20033;-46
2022/08/20 09:58:05;;;;;;;2.78;1.30;;;25.60;98.00;;;25.27;60.01;97316.66;5036675;28;20267;-46
2022/08/20 10:00:30;;;;;;;1.90;1.20;;;25.60;97.70;;;25.04;60.42;97331.53;5017881;28;20170;-46
2022/08/20 10:02:56;;;;;;;1.00;0.90;;;25.40;97.70;;;24.76;61.54;97328.78;5033297;28;20119;-47
2022/08/20 10:05:22;;;;;;;0.90;0.90;;;25.20;97.80;;;24.47;61.37;97310.81;5033105;28;20061;-46
2022/08/20 10:07:48;;;;;;;1.13;0.95;;;25.00;98.20;;;24.29;64.30;97342.22;5020042;28;20485;-46
2022/08/20 10:10:15;;;;;;;1.27;1.15;;;24.70;98.60;;;23.97;66.71;97329.91;5033586;28;20033;-46
2022/08/20 10:12:41;;;;;;;1.45;1.20;;;24.50;99.40;;;24.05;66.48;97339.97;5036401;28;20021;-46
2022/08/20 10:15:09;;;;;;;2.15;1.20;;;24.40;99.80;;;24.18;66.60;97332.44;5036863;28;20071;-47
2022/08/20 10:17:40;;;;;;;3.05;1.23;;;24.40;99.90;;;24.20;67.90;97331.28;5016670;28;20045;-50
2022/08/20 10:20:08;;;;;;;1.90;1.30;;;24.40;99.90;;;24.25;67.73;97338.97;5035483;28;20119;-46
2022/08/20 10:22:34;;;;;;;6.95;1.50;;;24.50;99.90;;;24.06;68.47;97334.44;5032595;28;20433;-48
2022/08/20 10:25:00;;;;;;;1.23;1.10;;;24.50;99.90;;;23.94;69.94;97331.06;5035058;28;20029;-47
2022/08/20 10:27:26;;;;;;;1.60;0.98;;;24.30;99.90;;;23.71;70.10;97341.22;5035946;28;20667;-46
2022/08/20 10:29:52;;;;;;;1.15;0.90;;;24.10;99.90;;;23.37;71.39;97325.44;5036170;28;20116;-46
2022/08/20 10:32:18;;;;;;;1.00;0.80;;;23.80;99.90;;;23.40;71.94;97325.16;5034088;28;20033;-49
2022/08/20 10:34:45;;;;;;;1.10;0.52;;;23.70;99.90;;;23.43;71.31;97340.19;5015445;28;20124;-47